Rapid City, Canada
Current Conditions -  °F | °C
As of 11:00 AM on Tuesday 27 Jan 2015 (Local Time) from CYBR Reporting Station
Overcast Overcast  
Wind Chill: 26°   Ceiling: 22000
Heat Index: 32°   Visibility: 15mi
Dew Point: 32°   Wind: 6mph
Humidity: 100%   Direction: 130°SE
Pressure: 29.86"   Gusts: NA
Location:  50.12°N, 100.03°W
Report Text: CYBR 271700Z 13005KT 15SM FEW110 OVC220 M00/M00 A2986 RMK AC2CI6 SLP140
Loading
Personal Weather Stations






























Interactive Weather Map New forecast layout! Learn more

10-Day Weather Forecast

Advertisements
Track Severe Weather on mobile